Time;durP1;ratioP1;P1;durP2;ratioP2;P2;SDS_P1;SDS_P2;PMS_P1;PMS_P2;Temp;Humidity;BMP_temperature;BMP_pressure;BME280_temperature;BME280_humidity;BME280_pressure;Samples;Min_cycle;Max_cycle;Signal;HPM_P1;HPM_P2
2023/06/09 00:00:47;;;;;;;;;;;;;;;-144.99;86.38;52172.94;5065913;28;19925;-67
2023/06/09 00:03:16;;;;;;;;;;;;;;;-144.99;88.02;52223.88;5066966;28;19925;-68
2023/06/09 00:05:42;;;;;;;;;;;;;;;-144.99;88.42;52209.63;5066382;28;19925;-69
2023/06/09 00:08:09;;;;;;;;;;;;;;;-144.99;89.90;52219.81;5071881;28;19928;-71
2023/06/09 00:10:36;;;;;;;;;;;;;;;-144.99;89.48;52213.69;5054452;28;20289;-68
2023/06/09 00:13:03;;;;;;;;;;;;;;;-144.99;88.83;52207.59;5068605;28;20380;-66
2023/06/09 00:15:29;;;;;;;;;;;;;;;-144.99;88.93;52189.25;5059722;28;20037;-67
2023/06/09 00:17:57;;;;;;;;;;;;;;;-144.99;88.99;52170.91;5074666;28;19924;-67
2023/06/09 00:20:25;;;;;;;;;;;;;;;-144.99;88.83;52174.97;5078504;28;20312;-66
2023/06/09 00:22:55;;;;;;;;;;;;;;;-144.99;88.87;52195.34;5066831;28;20026;-67
2023/06/09 00:25:21;;;;;;;;;;;;;;;-144.99;88.99;52215.75;5065974;28;19928;-66
2023/06/09 00:27:48;;;;;;;;;;;;;;;-144.99;89.39;52195.34;5061029;28;19932;-66
2023/06/09 00:30:15;;;;;;;;;;;;;;;-144.99;89.30;52215.75;5061245;28;19925;-67
2023/06/09 00:32:42;;;;;;;;;;;;;;;-144.99;89.30;52236.13;5056370;28;19929;-67
2023/06/09 00:35:10;;;;;;;;;;;;;;;-144.99;89.32;52166.81;5066975;28;19932;-66
2023/06/09 00:37:37;;;;;;;;;;;;;;;-144.99;88.46;52191.28;5058152;28;19929;-67
2023/06/09 00:40:04;;;;;;;;;;;;;;;-144.99;89.04;52191.28;5065385;28;19928;-66
2023/06/09 00:42:31;;;;;;;;;;;;;;;-144.99;88.44;52244.28;5068142;28;19982;-67
2023/06/09 00:44:58;;;;;;;;;;;;;;;-144.99;88.02;52183.13;5070475;28;20273;-67
2023/06/09 00:47:25;;;;;;;;;;;;;;;-144.99;89.35;52215.75;5069796;28;20411;-69
2023/06/09 00:49:51;;;;;;;;;;;;;;;-144.99;89.33;52187.19;5074480;28;20407;-68
2023/06/09 00:52:19;;;;;;;;;;;;;;;-144.99;89.59;52207.59;5066524;28;20320;-68
2023/06/09 00:54:46;;;;;;;;;;;;;;;-144.99;89.56;52215.75;5060563;28;19931;-68
2023/06/09 00:57:13;;;;;;;;;;;;;;;-144.99;89.60;52223.88;5076056;28;19928;-69
2023/06/09 00:59:40;;;;;;;;;;;;;;;-144.99;89.61;52166.81;5088505;27;19912;-70
2023/06/09 01:02:07;;;;;;;;;;;;;;;-144.99;89.71;52203.50;5078403;28;19924;-69
2023/06/09 01:04:34;;;;;;;;;;;;;;;-144.99;90.17;52207.59;5072132;28;20469;-69
2023/06/09 01:07:05;;;;;;;;;;;;;;;-144.99;90.20;52199.44;5061543;28;19928;-69
2023/06/09 01:09:35;;;;;;;;;;;;;;;-144.99;90.97;52219.81;5074257;28;19933;-67
2023/06/09 01:12:08;;;;;;;;;;;;;;;-144.99;91.38;52230.00;5069585;28;19932;-69
2023/06/09 01:14:42;;;;;;;;;;;;;;;-144.99;92.37;52199.44;5069467;28;20324;-68
2023/06/09 01:17:09;;;;;;;;;;;;;;;-144.99;92.81;52223.88;5069285;28;19929;-68
2023/06/09 01:19:40;;;;;;;;;;;;;;;-144.99;92.69;52203.50;5068137;28;19925;-66
2023/06/09 01:22:09;;;;;;;;;;;;;;;-144.99;93.22;52211.66;5066954;28;19928;-65
2023/06/09 01:24:46;;;;;;;;;;;;;;;-144.99;93.34;52201.47;5069738;28;19929;-66
2023/06/09 01:27:16;;;;;;;;;;;;;;;-144.99;93.03;52183.13;5069716;28;19924;-66
2023/06/09 01:29:44;;;;;;;;;;;;;;;-144.99;93.06;52223.88;5060903;28;20371;-66
2023/06/09 01:32:11;;;;;;;;;;;;;;;-144.99;92.73;52232.03;5056803;28;19930;-66
2023/06/09 01:34:38;;;;;;;;;;;;;;;-144.99;93.14;52211.66;5069621;28;19934;-65
2023/06/09 01:37:05;;;;;;;;;;;;;;;-144.99;93.63;52189.25;5063373;28;19931;-67
2023/06/09 01:39:32;;;;;;;;;;;;;;;-144.99;93.69;52185.16;5090439;28;19928;-68
2023/06/09 01:41:59;;;;;;;;;;;;;;;-144.99;94.14;52183.13;5082514;28;19935;-68
2023/06/09 01:44:27;;;;;;;;;;;;;;;-144.99;93.69;52215.75;5067030;28;20011;-66
2023/06/09 01:46:54;;;;;;;;;;;;;;;-144.99;94.09;52232.03;5061677;28;19932;-66
2023/06/09 01:49:23;;;;;;;;;;;;;;;-144.99;94.04;52211.66;5069097;28;20195;-67
2023/06/09 01:51:52;;;;;;;;;;;;;;;-144.99;93.73;52207.59;5069821;28;20348;-66
2023/06/09 01:54:22;;;;;;;;;;;;;;;-144.99;93.65;52183.13;5059590;28;19970;-67
2023/06/09 01:56:54;;;;;;;;;;;;;;;-144.99;93.66;52250.38;5070152;28;20233;-67
2023/06/09 01:59:23;;;;;;;;;;;;;;;-144.99;93.59;52174.97;5068401;28;20413;-66
2023/06/09 02:01:52;;;;;;;;;;;;;;;-144.99;93.96;52211.66;5066208;28;19933;-67
2023/06/09 02:04:22;;;;;;;;;;;;;;;-144.99;94.14;52223.88;5061080;28;19924;-66
2023/06/09 02:06:49;;;;;;;;;;;;;;;-144.99;94.65;52217.78;5068692;28;19925;-67
2023/06/09 02:09:16;;;;;;;;;;;;;;;-144.99;94.95;52174.97;5071103;28;20016;-64
2023/06/09 02:11:42;;;;;;;;;;;;;;;-144.99;94.28;52207.59;5068580;28;19936;-65
2023/06/09 02:14:09;;;;;;;;;;;;;;;-144.99;95.20;52240.19;5071277;28;20408;-66
2023/06/09 02:16:36;;;;;;;;;;;;;;;-144.99;95.13;52195.34;5061046;28;19934;-66
2023/06/09 02:19:04;;;;;;;;;;;;;;;-144.99;94.63;52189.25;5067517;28;19932;-66
2023/06/09 02:21:31;;;;;;;;;;;;;;;-144.99;94.88;52227.97;5070004;28;19928;-67
2023/06/09 02:23:58;;;;;;;;;;;;;;;-144.99;95.36;52219.81;5067751;28;19924;-70
2023/06/09 02:26:24;;;;;;;;;;;;;;;-144.99;94.69;52227.97;5067924;28;20415;-70
2023/06/09 02:28:51;;;;;;;;;;;;;;;-144.99;94.57;52195.34;5064861;28;20305;-71
2023/06/09 02:31:17;;;;;;;;;;;;;;;-144.99;94.38;52207.59;5061932;28;19928;-69
2023/06/09 02:33:44;;;;;;;;;;;;;;;-144.99;95.04;52201.47;5064894;28;19929;-69
2023/06/09 02:36:13;;;;;;;;;;;;;;;-144.99;95.10;52207.59;5057276;28;20350;-68
2023/06/09 02:38:40;;;;;;;;;;;;;;;-144.99;95.22;52211.66;5067074;28;19925;-69
2023/06/09 02:41:07;;;;;;;;;;;;;;;-144.99;95.95;52232.03;5068499;28;19963;-68
2023/06/09 02:43:33;;;;;;;;;;;;;;;-144.99;95.42;52195.34;5058877;28;19929;-68
2023/06/09 02:46:00;;;;;;;;;;;;;;;-144.99;95.22;52195.34;5063706;28;20225;-69
2023/06/09 02:48:26;;;;;;;;;;;;;;;-144.99;95.24;52215.75;5066834;28;19924;-69
2023/06/09 02:50:53;;;;;;;;;;;;;;;-144.99;95.49;52232.03;5064827;28;19925;-67
2023/06/09 02:53:21;;;;;;;;;;;;;;;-144.99;95.42;52238.16;5065683;28;19925;-68
2023/06/09 02:55:47;;;;;;;;;;;;;;;-144.99;95.53;52240.19;5060659;28;19932;-67
2023/06/09 02:58:14;;;;;;;;;;;;;;;-144.99;95.49;52195.34;5065117;28;19928;-67
2023/06/09 03:00:44;;;;;;;;;;;;;;;-144.99;95.17;52219.81;5067730;28;20397;-69
2023/06/09 03:03:11;;;;;;;;;;;;;;;-144.99;95.62;52215.75;5069015;28;19973;-66
2023/06/09 03:05:40;;;;;;;;;;;;;;;-144.99;95.59;52225.94;5067386;28;19932;-69
2023/06/09 03:08:25;;;;;;;;;;;;;;;-144.99;96.17;52223.88;5058534;28;20372;-67
2023/06/09 03:10:54;;;;;;;;;;;;;;;-144.99;95.67;52219.81;5066202;28;20011;-66
2023/06/09 03:13:21;;;;;;;;;;;;;;;-144.99;95.78;52232.03;5066779;28;20036;-65
2023/06/09 03:15:50;;;;;;;;;;;;;;;-144.99;95.58;52215.75;5066954;28;20209;-68
2023/06/09 03:18:16;;;;;;;;;;;;;;;-144.99;96.03;52203.50;5066115;28;19956;-68
2023/06/09 03:20:43;;;;;;;;;;;;;;;-144.99;96.89;52203.50;5066999;28;19928;-69
2023/06/09 03:23:10;;;;;;;;;;;;;;;-144.99;96.10;52195.34;5066264;28;19932;-68
2023/06/09 03:25:37;;;;;;;;;;;;;;;-144.99;96.05;52201.47;5066146;28;19929;-68
2023/06/09 03:28:05;;;;;;;;;;;;;;;-144.99;96.42;52217.78;5065700;28;19934;-68
2023/06/09 03:30:31;;;;;;;;;;;;;;;-144.99;95.70;52236.13;5066168;28;19924;-69
2023/06/09 03:32:58;;;;;;;;;;;;;;;-144.99;95.49;52211.66;5060187;28;19929;-69
2023/06/09 03:35:25;;;;;;;;;;;;;;;-144.99;95.39;52244.28;5056262;28;19925;-68
2023/06/09 03:37:51;;;;;;;;;;;;;;;-144.99;95.62;52227.97;5067228;28;20007;-67
2023/06/09 03:40:18;;;;;;;;;;;;;;;-144.99;95.69;52230.00;5070672;28;19987;-66
2023/06/09 03:42:45;;;;;;;;;;;;;;;-144.99;96.02;52215.75;5061711;28;19924;-67
2023/06/09 03:45:13;;;;;;;;;;;;;;;-144.99;96.28;52254.47;5057038;28;19935;-65
2023/06/09 03:47:40;;;;;;;;;;;;;;;-144.99;96.00;52252.44;5064531;28;19925;-66
2023/06/09 03:50:07;;;;;;;;;;;;;;;-144.99;95.61;52211.66;5065905;28;19936;-66
2023/06/09 03:52:34;;;;;;;;;;;;;;;-144.99;95.10;52225.94;5065109;28;19925;-67
2023/06/09 03:55:01;;;;;;;;;;;;;;;-144.99;95.33;52195.34;5056074;28;20030;-65
2023/06/09 03:57:28;;;;;;;;;;;;;;;-144.99;95.18;52213.69;5061876;28;19936;-65
2023/06/09 03:59:55;;;;;;;;;;;;;;;-144.99;95.39;52223.88;5064591;28;19928;-66
2023/06/09 04:02:23;;;;;;;;;;;;;;;-144.99;95.20;52187.19;5056108;28;20539;-65
2023/06/09 04:04:49;;;;;;;;;;;;;;;-144.99;95.16;52244.28;5061952;28;19925;-66
2023/06/09 04:07:16;;;;;;;;;;;;;;;-144.99;95.57;52211.66;5064843;28;20409;-64
2023/06/09 04:09:42;;;;;;;;;;;;;;;-144.99;95.62;52213.69;5066938;28;20267;-65
2023/06/09 04:12:09;;;;;;;;;;;;;;;-144.99;95.64;52207.59;5066393;28;19955;-67
2023/06/09 04:14:36;;;;;;;;;;;;;;;-144.99;95.28;52193.31;5057868;28;19951;-69
2023/06/09 04:17:03;;;;;;;;;;;;;;;-144.99;95.02;52211.66;5062285;28;19924;-67
2023/06/09 04:19:31;;;;;;;;;;;;;;;-144.99;94.97;52195.34;5065148;28;19974;-67
2023/06/09 04:22:04;;;;;;;;;;;;;;;-144.99;95.21;52211.66;5065469;28;19924;-69
2023/06/09 04:24:31;;;;;;;;;;;;;;;-144.99;95.36;52203.50;5072007;28;19924;-69
2023/06/09 04:26:58;;;;;;;;;;;;;;;-144.99;95.30;52187.19;5059206;28;20389;-67
2023/06/09 04:29:25;;;;;;;;;;;;;;;-144.99;95.53;52211.66;5053852;28;20405;-69
2023/06/09 04:31:58;;;;;;;;;;;;;;;-144.99;95.68;52199.44;5063639;28;19924;-69
2023/06/09 04:34:26;;;;;;;;;;;;;;;-144.99;95.65;52211.66;5063093;28;20436;-68
2023/06/09 04:36:55;;;;;;;;;;;;;;;-144.99;95.65;52211.66;5056457;28;19924;-68
2023/06/09 04:39:24;;;;;;;;;;;;;;;-144.99;95.60;52191.28;5058891;28;19935;-68
2023/06/09 04:41:53;;;;;;;;;;;;;;;-144.99;95.74;52213.69;5061915;28;20408;-67
2023/06/09 04:44:20;;;;;;;;;;;;;;;-144.99;95.55;52195.34;5059930;28;20362;-69
2023/06/09 04:46:49;;;;;;;;;;;;;;;-144.99;95.27;52187.19;5065997;28;20023;-68
2023/06/09 04:49:16;;;;;;;;;;;;;;;-144.99;95.50;52223.88;5054617;28;19925;-68
2023/06/09 04:51:46;;;;;;;;;;;;;;;-144.99;95.01;52172.94;5065714;28;20463;-67
2023/06/09 04:54:14;;;;;;;;;;;;;;;-144.99;94.60;52236.13;5058279;28;20294;-67
2023/06/09 04:56:41;;;;;;;;;;;;;;;-144.99;94.79;52191.28;5060370;28;19932;-65
2023/06/09 04:59:08;;;;;;;;;;;;;;;-144.99;94.51;52191.28;5060127;28;19939;-63
2023/06/09 05:01:34;;;;;;;;;;;;;;;-144.99;94.49;52197.41;5060196;28;19967;-62
2023/06/09 05:04:01;;;;;;;;;;;;;;;-144.99;93.47;52170.91;5060342;28;19928;-63
2023/06/09 05:06:27;;;;;;;;;;;;;;;-144.99;92.75;52195.34;5070327;28;19928;-63
2023/06/09 05:08:55;;;;;;;;;;;;;;;-144.99;92.48;52183.13;5071627;28;20157;-62
2023/06/09 05:11:23;;;;;;;;;;;;;;;-144.99;91.54;52170.91;5056402;28;19924;-62
2023/06/09 05:13:50;;;;;;;;;;;;;;;-144.99;90.91;52179.06;5063082;28;19929;-64
2023/06/09 05:16:16;;;;;;;;;;;;;;;-144.99;91.42;52181.09;5065620;28;19924;-59
2023/06/09 05:18:43;;;;;;;;;;;;;;;-144.99;90.57;52166.81;4362237;28;10000724;-61
2023/06/09 05:21:10;;;;;;;;;;;;;;;-144.99;90.24;52158.66;5063427;28;20024;-61
2023/06/09 05:23:36;;;;;;;;;;;;;;;-144.99;89.96;52181.09;5063775;28;19936;-60
2023/06/09 05:26:03;;;;;;;;;;;;;;;-144.99;90.04;52126.06;5065598;28;19928;-61
2023/06/09 05:28:32;;;;;;;;;;;;;;;-144.99;89.92;52183.13;5059778;28;20022;-59
2023/06/09 05:30:59;;;;;;;;;;;;;;;-144.99;90.67;52203.50;5057306;28;19928;-61
2023/06/09 05:33:26;;;;;;;;;;;;;;;-144.99;90.91;52183.13;5060855;28;20046;-61
2023/06/09 05:35:52;;;;;;;;;;;;;;;-144.99;90.74;52189.25;5059386;28;19935;-60
2023/06/09 05:38:19;;;;;;;;;;;;;;;-144.99;89.79;52170.91;5063593;28;19929;-60
2023/06/09 05:40:46;;;;;;;;;;;;;;;-144.99;88.84;52148.47;5065127;28;20386;-61
2023/06/09 05:43:12;;;;;;;;;;;;;;;-144.99;89.20;52154.59;5058778;28;19937;-60
2023/06/09 05:45:40;;;;;;;;;;;;;;;-144.99;89.16;52170.91;5056715;28;19924;-60
2023/06/09 05:48:07;;;;;;;;;;;;;;;-144.99;88.76;52189.25;5066829;28;20301;-61
2023/06/09 05:50:34;;;;;;;;;;;;;;;-144.99;88.46;52183.13;5056365;28;19928;-62
2023/06/09 05:53:00;;;;;;;;;;;;;;;-144.99;87.94;52134.22;5065356;28;20316;-62
2023/06/09 05:55:27;;;;;;;;;;;;;;;-144.99;87.00;52158.66;5064486;28;19935;-61
2023/06/09 05:57:53;;;;;;;;;;;;;;;-144.99;86.48;52154.59;5062244;28;20175;-60
2023/06/09 06:00:20;;;;;;;;;;;;;;;-144.99;86.63;52170.91;5062486;28;19928;-61
2023/06/09 06:02:48;;;;;;;;;;;;;;;-144.99;86.51;52160.72;5064353;28;19929;-60
2023/06/09 06:05:15;;;;;;;;;;;;;;;-144.99;86.97;52146.44;5057769;28;20321;-60
2023/06/09 06:07:41;;;;;;;;;;;;;;;-144.99;86.57;52160.72;5063692;28;19928;-60
2023/06/09 06:10:09;;;;;;;;;;;;;;;-144.99;86.41;52134.22;5064426;28;19947;-61
2023/06/09 06:12:36;;;;;;;;;;;;;;;-144.99;86.23;52130.13;5064136;28;20381;-61
2023/06/09 06:15:02;;;;;;;;;;;;;;;-144.99;85.28;52146.44;5061968;28;19951;-61
2023/06/09 06:17:29;;;;;;;;;;;;;;;-144.99;86.35;52134.22;5065109;28;20376;-60
2023/06/09 06:19:58;;;;;;;;;;;;;;;-144.99;86.19;52146.44;5065913;28;19936;-60
2023/06/09 06:22:24;;;;;;;;;;;;;;;-144.99;85.43;52113.84;5066943;28;19939;-61
2023/06/09 06:24:51;;;;;;;;;;;;;;;-144.99;84.91;52134.22;5065362;28;19924;-63
2023/06/09 06:27:18;;;;;;;;;;;;;;;-144.99;83.76;52136.25;5064441;28;19932;-60
2023/06/09 06:29:44;;;;;;;;;;;;;;;-144.99;83.06;52126.06;5052722;28;19929;-60
2023/06/09 06:32:11;;;;;;;;;;;;;;;-144.99;82.75;52105.69;5059502;28;20300;-62
2023/06/09 06:34:38;;;;;;;;;;;;;;;-144.99;82.20;52121.97;5064177;28;19929;-61
2023/06/09 06:37:06;;;;;;;;;;;;;;;-144.99;82.01;52121.97;5061297;28;20009;-61
2023/06/09 06:39:32;;;;;;;;;;;;;;;-144.99;81.88;52126.06;5062978;28;19928;-61
2023/06/09 06:41:59;;;;;;;;;;;;;;;-144.99;81.00;52130.13;5058544;28;20275;-61
2023/06/09 06:44:26;;;;;;;;;;;;;;;-144.99;80.96;52138.28;5062170;28;19928;-61
2023/06/09 06:46:52;;;;;;;;;;;;;;;-144.99;80.11;52111.78;5062054;28;19925;-60
2023/06/09 06:49:19;;;;;;;;;;;;;;;-144.99;79.81;52134.22;5061174;28;20082;-60
2023/06/09 06:51:45;;;;;;;;;;;;;;;-144.99;79.38;52119.94;5059225;28;20422;-61
2023/06/09 06:54:15;;;;;;;;;;;;;;;-144.99;78.98;52113.84;5063129;28;19925;-60
2023/06/09 06:56:42;;;;;;;;;;;;;;;-144.99;78.84;52081.22;5061421;28;19929;-60
2023/06/09 06:59:09;;;;;;;;;;;;;;;-144.99;79.00;52109.75;5061527;28;19935;-61
2023/06/09 07:01:37;;;;;;;;;;;;;;;-144.99;78.49;52093.44;5059932;28;20314;-61
2023/06/09 07:04:04;;;;;;;;;;;;;;;-144.99;77.65;52126.06;4710541;28;9999971;-62
2023/06/09 07:06:32;;;;;;;;;;;;;;;-144.99;77.51;52085.31;5061516;28;19944;-60
2023/06/09 07:08:58;;;;;;;;;;;;;;;-144.99;77.26;52121.97;5062757;28;19935;-61
2023/06/09 07:11:28;;;;;;;;;;;;;;;-144.99;76.93;52109.75;5055959;28;19935;-61
2023/06/09 07:13:54;;;;;;;;;;;;;;;-144.99;76.97;52117.91;5062917;28;20013;-61
2023/06/09 07:16:21;;;;;;;;;;;;;;;-144.99;76.54;52081.22;5062359;28;20309;-61
2023/06/09 07:18:47;;;;;;;;;;;;;;;-144.99;76.32;52066.97;5063392;28;19951;-61
2023/06/09 07:21:14;;;;;;;;;;;;;;;-144.99;76.13;52097.53;5064259;28;19928;-61
2023/06/09 07:23:41;;;;;;;;;;;;;;;-144.99;75.67;52069.00;5062923;28;20365;-60
2023/06/09 07:26:07;;;;;;;;;;;;;;;-144.99;75.25;52111.78;5057020;28;19925;-60
2023/06/09 07:28:35;;;;;;;;;;;;;;;-144.99;74.76;52069.00;5058210;28;20317;-61
2023/06/09 07:31:02;;;;;;;;;;;;;;;-144.99;74.66;52079.19;5058122;28;19928;-61
2023/06/09 07:33:32;;;;;;;;;;;;;;;-144.99;74.18;52081.22;5062531;28;19967;-61
2023/06/09 07:35:58;;;;;;;;;;;;;;;-144.99;73.80;52069.00;5063236;28;19929;-61
2023/06/09 07:38:26;;;;;;;;;;;;;;;-144.99;73.29;52069.00;5056421;28;19935;-61
2023/06/09 07:40:53;;;;;;;;;;;;;;;-144.99;72.31;52069.00;5061405;28;19929;-61
2023/06/09 07:43:20;;;;;;;;;;;;;;;-144.99;71.90;52071.03;5061496;28;19928;-61
2023/06/09 07:45:48;;;;;;;;;;;;;;;-144.99;71.21;52052.69;5062644;28;19928;-61
2023/06/09 07:48:14;;;;;;;;;;;;;;;-144.99;71.31;52085.31;5055150;28;19967;-61
2023/06/09 07:50:41;;;;;;;;;;;;;;;-144.99;71.33;52083.25;5063065;28;19928;-61
2023/06/09 07:53:08;;;;;;;;;;;;;;;-144.99;70.49;52079.19;5062894;28;20007;-60
2023/06/09 07:55:35;;;;;;;;;;;;;;;-144.99;69.93;52081.22;5058885;28;20392;-60
2023/06/09 07:58:02;;;;;;;;;;;;;;;-144.99;69.82;52060.84;5061744;28;20071;-61
2023/06/09 08:00:29;;;;;;;;;;;;;;;-144.99;70.10;52101.59;5054879;28;19939;-62
2023/06/09 08:03:02;;;;;;;;;;;;;;;-144.99;69.81;52081.22;5061697;28;19935;-62
2023/06/09 08:05:29;;;;;;;;;;;;;;;-144.99;69.77;52097.53;5063211;28;20057;-63
2023/06/09 08:07:55;;;;;;;;;;;;;;;-144.99;69.44;52062.88;5059156;28;20027;-62
2023/06/09 08:10:22;;;;;;;;;;;;;;;-144.99;68.97;52073.06;5062946;28;19935;-62
2023/06/09 08:12:49;;;;;;;;;;;;;;;-144.99;68.07;52093.44;5059763;28;19925;-61
2023/06/09 08:15:16;;;;;;;;;;;;;;;-144.99;67.71;52085.31;5061089;28;19962;-62
2023/06/09 08:17:43;;;;;;;;;;;;;;;-144.99;67.30;52056.78;5062466;28;19928;-61
2023/06/09 08:20:11;;;;;;;;;;;;;;;-144.99;67.16;52048.63;5062979;28;19928;-62
2023/06/09 08:22:38;;;;;;;;;;;;;;;-144.99;66.18;52036.38;5060540;28;19944;-62
2023/06/09 08:25:05;;;;;;;;;;;;;;;-144.99;65.45;52032.31;5061744;28;19928;-62
2023/06/09 08:27:31;;;;;;;;;;;;;;;-144.99;65.72;52028.22;5059398;28;19928;-61
2023/06/09 08:29:58;;;;;;;;;;;;;;;-144.99;65.88;52052.69;5056228;28;19932;-63
2023/06/09 08:32:25;;;;;;;;;;;;;;;-144.99;65.93;52069.00;5058457;28;19936;-62
2023/06/09 08:34:52;;;;;;;;;;;;;;;-144.99;66.19;52089.38;5062077;28;20029;-62
2023/06/09 08:37:21;;;;;;;;;;;;;;;-144.99;66.50;52052.69;5062500;28;19948;-62
2023/06/09 08:39:47;;;;;;;;;;;;;;;-144.99;66.57;52046.56;5061016;28;20344;-62
2023/06/09 08:42:20;;;;;;;;;;;;;;;-144.99;66.04;52044.53;5056236;28;20426;-62
2023/06/09 08:44:48;;;;;;;;;;;;;;;-144.99;65.62;52058.81;5058375;28;19955;-62
2023/06/09 08:47:18;;;;;;;;;;;;;;;-144.99;66.46;52062.88;5056194;28;19932;-62
2023/06/09 08:49:45;;;;;;;;;;;;;;;-144.99;66.48;52064.91;5062487;28;19928;-63
2023/06/09 08:52:11;;;;;;;;;;;;;;;-144.99;65.79;52073.06;5062038;28;19929;-62
2023/06/09 08:54:40;;;;;;;;;;;;;;;-144.99;65.50;52036.38;5060971;28;20409;-62
2023/06/09 08:57:09;;;;;;;;;;;;;;;-144.99;64.87;52085.31;5065353;28;19928;-62
2023/06/09 08:59:36;;;;;;;;;;;;;;;-144.99;64.39;52052.69;5064025;28;19929;-63
2023/06/09 09:02:03;;;;;;;;;;;;;;;-144.99;64.41;52069.00;5065696;28;19932;-62
2023/06/09 09:04:29;;;;;;;;;;;;;;;-144.99;63.55;51991.56;5063314;28;19932;-62
2023/06/09 09:06:56;;;;;;;;;;;;;;;-144.99;63.17;52016.00;5066375;28;20224;-62
2023/06/09 09:09:23;;;;;;;;;;;;;;;-144.99;63.41;52052.69;5067264;28;20381;-61
2023/06/09 09:11:52;;;;;;;;;;;;;;;-144.99;63.01;52018.03;5058257;28;19932;-62
2023/06/09 09:14:19;;;;;;;;;;;;;;;-144.99;62.42;52024.16;5058142;28;19964;-62
2023/06/09 09:16:45;;;;;;;;;;;;;;;-144.99;61.81;52020.09;5062624;28;19935;-61
2023/06/09 09:19:12;;;;;;;;;;;;;;;-144.99;61.95;51975.25;5065477;28;19929;-61
2023/06/09 09:21:39;;;;;;;;;;;;;;;-144.99;61.74;52048.63;5061490;28;20239;-62
2023/06/09 09:24:06;;;;;;;;;;;;;;;-144.99;60.60;52020.09;5065453;28;19936;-62
2023/06/09 09:26:33;;;;;;;;;;;;;;;-144.99;60.55;51979.31;5060576;28;19924;-62
2023/06/09 09:29:02;;;;;;;;;;;;;;;-144.99;60.31;51979.31;5056484;28;19935;-63
2023/06/09 09:31:33;;;;;;;;;;;;;;;-144.99;60.30;51991.56;5060673;28;19944;-62
2023/06/09 09:34:02;;;;;;;;;;;;;;;-144.99;60.07;51950.78;5065653;28;20448;-62
2023/06/09 09:36:29;;;;;;;;;;;;;;;-144.99;59.80;51934.50;5062757;28;19938;-63
2023/06/09 09:38:56;;;;;;;;;;;;;;;-144.99;59.42;51987.47;5055326;28;20022;-63
2023/06/09 09:41:23;;;;;;;;;;;;;;;-144.99;59.26;51946.72;5060723;28;19928;-63
2023/06/09 09:43:54;;;;;;;;;;;;;;;-144.99;59.75;51975.25;5053273;28;20386;-63
2023/06/09 09:46:23;;;;;;;;;;;;;;;-144.99;59.60;51999.69;5059102;28;19935;-63
2023/06/09 09:48:50;;;;;;;;;;;;;;;-144.99;59.60;51987.47;5065563;28;20006;-62
2023/06/09 09:51:16;;;;;;;;;;;;;;;-144.99;59.20;51942.63;5064633;28;19928;-63
2023/06/09 09:53:45;;;;;;;;;;;;;;;-144.99;59.57;51967.09;5061680;28;20026;-63
2023/06/09 09:56:12;;;;;;;;;;;;;;;-144.99;60.01;51930.41;5063145;28;20421;-63
2023/06/09 09:58:41;;;;;;;;;;;;;;;-144.99;58.59;51946.72;5057943;28;19929;-64
2023/06/09 10:01:09;;;;;;;;;;;;;;;-144.99;58.58;51958.94;5064595;28;20395;-64
2023/06/09 10:03:38;;;;;;;;;;;;;;;-144.99;58.26;51971.16;5060374;28;19935;-63
2023/06/09 10:06:08;;;;;;;;;;;;;;;-144.99;58.39;51971.16;5061476;28;20385;-62
2023/06/09 10:08:38;;;;;;;;;;;;;;;-144.99;58.33;52018.03;5057266;28;20435;-63
2023/06/09 10:11:05;;;;;;;;;;;;;;;-144.99;58.45;52016.00;5063991;28;19925;-64
2023/06/09 10:13:31;;;;;;;;;;;;;;;-144.99;58.91;51979.31;5059381;28;19927;-64
2023/06/09 10:15:59;;;;;;;;;;;;;;;-144.99;58.70;51967.09;5063729;28;19936;-63
2023/06/09 10:18:25;;;;;;;;;;;;;;;-144.99;58.74;51979.31;5060257;28;19928;-62
2023/06/09 10:20:54;;;;;;;;;;;;;;;-144.99;59.40;52003.78;5059468;28;19928;-62
2023/06/09 10:23:21;;;;;;;;;;;;;;;-144.99;59.38;51999.69;5062429;28;19935;-63
2023/06/09 10:25:48;;;;;;;;;;;;;;;-144.99;59.09;51930.41;5064908;28;20604;-62
2023/06/09 10:28:16;;;;;;;;;;;;;;;-144.99;57.91;51983.41;5058032;28;20008;-63
2023/06/09 10:30:43;;;;;;;;;;;;;;;-144.99;58.13;51934.50;5067134;28;19928;-63
2023/06/09 10:33:12;;;;;;;;;;;;;;;-144.99;58.22;51936.53;5063622;28;19939;-63
2023/06/09 10:35:40;;;;;;;;;;;;;;;-144.99;57.44;51908.00;5061265;28;19928;-64
2023/06/09 10:38:23;;;;;;;;;;;;;;;-144.99;56.27;51885.56;5056815;28;19960;-62
2023/06/09 10:40:53;;;;;;;;;;;;;;;-144.99;55.91;51914.09;5059242;28;19993;-62
2023/06/09 10:43:28;;;;;;;;;;;;;;;-144.99;55.93;51942.63;5050818;28;19924;-63
2023/06/09 10:45:55;;;;;;;;;;;;;;;-144.99;55.87;51938.56;5051145;28;19925;-63
2023/06/09 10:48:41;;;;;;;;;;;;;;;-144.99;55.67;51932.44;5064364;28;19943;-62
2023/06/09 10:51:27;;;;;;;;;;;;;;;-144.99;55.76;51932.44;5064526;28;19989;-63
2023/06/09 10:54:09;;;;;;;;;;;;;;;-144.99;55.59;51914.09;5060829;28;20435;-63
2023/06/09 10:56:40;;;;;;;;;;;;;;;-144.99;55.15;51885.56;5062698;28;20149;-63
2023/06/09 10:59:06;;;;;;;;;;;;;;;-144.99;54.81;51901.88;5060710;28;19986;-63
2023/06/09 11:01:33;;;;;;;;;;;;;;;-144.99;55.12;51865.19;5061289;28;19932;-65
2023/06/09 11:04:00;;;;;;;;;;;;;;;-144.99;55.31;51885.56;5059265;28;19959;-63
2023/06/09 11:06:26;;;;;;;;;;;;;;;-144.99;55.08;51910.03;5060700;28;19936;-63
2023/06/09 11:09:09;;;;;;;;;;;;;;;-144.99;53.53;51840.75;5063357;28;20385;-64
2023/06/09 11:11:49;;;;;;;;;;;;;;;-144.99;53.18;51828.50;5063310;28;21431;-63
2023/06/09 11:14:30;;;;;;;;;;;;;;;-144.99;52.69;51861.13;5061145;28;20362;-64
2023/06/09 11:17:16;;;;;;;;;;;;;;;-144.99;53.63;51897.81;5062418;28;20398;-64
2023/06/09 11:19:43;;;;;;;;;;;;;;;-144.99;52.83;51885.56;5061120;28;19924;-63
2023/06/09 11:22:09;;;;;;;;;;;;;;;-144.99;53.37;51938.56;5064078;28;19925;-63
2023/06/09 11:24:48;;;;;;;;;;;;;;;-144.99;53.49;51926.34;4708979;28;9999652;-63
2023/06/09 11:27:20;;;;;;;;;;;;;;;-144.99;52.65;51889.66;5062664;28;19959;-63
2023/06/09 11:30:02;;;;;;;;;;;;;;;-144.99;53.22;51971.16;5050474;28;20350;-63
2023/06/09 11:32:43;;;;;;;;;;;;;;;-144.99;53.21;51922.25;5060978;28;19928;-63
2023/06/09 11:35:11;;;;;;;;;;;;;;;-144.99;53.14;51905.97;5058031;28;19929;-64
2023/06/09 11:37:38;;;;;;;;;;;;;;;-144.99;51.84;51942.63;5060054;28;19932;-63
2023/06/09 11:40:08;;;;;;;;;;;;;;;-144.99;52.16;51950.78;5055518;28;19928;-64
2023/06/09 11:42:36;;;;;;;;;;;;;;;-144.99;52.48;51963.03;5058748;28;20448;-64
2023/06/09 11:45:06;;;;;;;;;;;;;;;-144.99;52.62;51936.53;5059996;28;19970;-64
2023/06/09 11:47:32;;;;;;;;;;;;;;;-144.99;52.36;51877.44;5048857;28;20386;-64
2023/06/09 11:50:11;;;;;;;;;;;;;;;-144.99;52.17;51930.41;5062674;28;19937;-64
2023/06/09 11:52:38;;;;;;;;;;;;;;;-144.99;52.10;51920.22;5059958;28;20243;-65
2023/06/09 11:55:06;;;;;;;;;;;;;;;-144.99;52.54;51934.50;5055762;28;20398;-64
2023/06/09 11:57:33;;;;;;;;;;;;;;;-144.99;52.56;51885.56;5064485;28;19929;-64
2023/06/09 12:00:07;;;;;;;;;;;;;;;-144.99;51.92;51877.44;5061523;28;19929;-64
2023/06/09 12:02:35;;;;;;;;;;;;;;;-144.99;51.66;51865.19;5059821;28;19993;-64
2023/06/09 12:05:02;;;;;;;;;;;;;;;-144.99;50.63;51840.75;5062792;28;19939;-64
2023/06/09 12:07:29;;;;;;;;;;;;;;;-144.99;50.49;51844.81;5059868;28;19928;-64
2023/06/09 12:09:56;;;;;;;;;;;;;;;-144.99;50.52;51861.13;5057749;28;19936;-63
2023/06/09 12:12:23;;;;;;;;;;;;;;;-144.99;50.91;51832.59;5056961;28;19929;-63
2023/06/09 12:14:50;;;;;;;;;;;;;;;-144.99;50.91;51852.97;5062346;28;19934;-64
2023/06/09 12:17:18;;;;;;;;;;;;;;;-144.99;51.07;51861.13;5063658;28;19924;-68
2023/06/09 12:19:47;;;;;;;;;;;;;;;-144.99;50.60;51832.59;5063770;28;19925;-64
2023/06/09 12:22:14;;;;;;;;;;;;;;;-144.99;50.69;51832.59;5080041;22;19935;-62
2023/06/09 12:24:40;;;;;;;;;;;;;;;-144.99;50.58;51812.22;5078218;28;20018;-62
2023/06/09 12:27:10;;;;;;;;;;;;;;;-144.99;50.45;51804.06;5083840;28;19934;-62
2023/06/09 12:29:37;;;;;;;;;;;;;;;-144.99;50.75;51852.97;5085588;28;20020;-62